sensor_id;sensor_type;location;lat;lon;timestamp;pressure;altitude;pressure_sealevel;temperature;humidity
39435;BME280;30098;51.880;-0.518;2022-12-10T00:02:23;99928.47;;;14.91;37.00
39435;BME280;30098;51.880;-0.518;2022-12-10T00:04:49;99938.81;;;14.89;36.69
39435;BME280;30098;51.880;-0.518;2022-12-10T00:07:14;99926.06;;;14.90;36.89
39435;BME280;30098;51.880;-0.518;2022-12-10T00:09:39;99926.34;;;14.88;36.90
39435;BME280;30098;51.880;-0.518;2022-12-10T00:12:04;99923.63;;;14.88;36.84
39435;BME280;30098;51.880;-0.518;2022-12-10T00:14:30;99922.84;;;14.88;37.10
39435;BME280;30098;51.880;-0.518;2022-12-10T00:16:55;99928.56;;;14.86;37.20
39435;BME280;30098;51.880;-0.518;2022-12-10T00:19:21;99921.50;;;14.85;36.87
39435;BME280;30098;51.880;-0.518;2022-12-10T00:21:46;99920.69;;;14.85;36.94
39435;BME280;30098;51.880;-0.518;2022-12-10T00:24:11;99922.63;;;14.84;36.78
39435;BME280;30098;51.880;-0.518;2022-12-10T00:26:38;99917.19;;;14.84;36.94
39435;BME280;30098;51.880;-0.518;2022-12-10T00:29:04;99917.50;;;14.83;36.84
39435;BME280;30098;51.880;-0.518;2022-12-10T00:31:32;99920.47;;;14.81;36.88
39435;BME280;30098;51.880;-0.518;2022-12-10T00:33:58;99926.72;;;14.82;36.65
39435;BME280;30098;51.880;-0.518;2022-12-10T00:36:25;99922.41;;;14.81;36.66
39435;BME280;30098;51.880;-0.518;2022-12-10T00:38:51;99927.00;;;14.80;36.91
39435;BME280;30098;51.880;-0.518;2022-12-10T00:41:17;99931.63;;;14.80;37.01
39435;BME280;30098;51.880;-0.518;2022-12-10T00:43:43;99928.13;;;14.79;36.86
39435;BME280;30098;51.880;-0.518;2022-12-10T00:46:08;99924.59;;;14.79;36.68
39435;BME280;30098;51.880;-0.518;2022-12-10T00:48:34;99932.72;;;14.79;37.01
39435;BME280;30098;51.880;-0.518;2022-12-10T00:51:01;99935.75;;;14.77;36.61
39435;BME280;30098;51.880;-0.518;2022-12-10T00:53:27;99930.31;;;14.77;36.83
39435;BME280;30098;51.880;-0.518;2022-12-10T00:55:52;99928.69;;;14.76;36.80
39435;BME280;30098;51.880;-0.518;2022-12-10T00:58:18;99933.31;;;14.75;36.72
39435;BME280;30098;51.880;-0.518;2022-12-10T01:00:43;99929.78;;;14.75;36.62
39435;BME280;30098;51.880;-0.518;2022-12-10T01:03:09;99927.91;;;14.75;36.91
39435;BME280;30098;51.880;-0.518;2022-12-10T01:05:34;99932.50;;;14.75;36.94
39435;BME280;30098;51.880;-0.518;2022-12-10T01:07:59;99935.22;;;14.75;36.91
39435;BME280;30098;51.880;-0.518;2022-12-10T01:10:25;99931.72;;;14.74;37.22
39435;BME280;30098;51.880;-0.518;2022-12-10T01:12:50;99929.78;;;14.75;37.02
39435;BME280;30098;51.880;-0.518;2022-12-10T01:15:15;99928.16;;;14.74;36.65
39435;BME280;30098;51.880;-0.518;2022-12-10T01:17:41;99925.47;;;14.74;36.91
39435;BME280;30098;51.880;-0.518;2022-12-10T01:20:06;99925.47;;;14.74;36.85
39435;BME280;30098;51.880;-0.518;2022-12-10T01:22:31;99928.16;;;14.74;37.17
39435;BME280;30098;51.880;-0.518;2022-12-10T01:24:57;99929.00;;;14.74;36.83
39435;BME280;30098;51.880;-0.518;2022-12-10T01:27:22;99931.72;;;14.74;36.95
39435;BME280;30098;51.880;-0.518;2022-12-10T01:29:47;99930.88;;;14.74;36.96
39435;BME280;30098;51.880;-0.518;2022-12-10T01:32:13;99933.59;;;14.74;36.81
39435;BME280;30098;51.880;-0.518;2022-12-10T01:34:38;99939.03;;;14.74;37.20
39435;BME280;30098;51.880;-0.518;2022-12-10T01:37:03;99943.34;;;14.75;37.01
39435;BME280;30098;51.880;-0.518;2022-12-10T01:39:29;99947.69;;;14.76;37.06
39435;BME280;30098;51.880;-0.518;2022-12-10T01:41:55;99863.53;;;14.24;37.21
39435;BME280;30098;51.880;-0.518;2022-12-10T01:46:47;99950.69;;;14.74;37.21
39435;BME280;30098;51.880;-0.518;2022-12-10T01:49:14;99954.19;;;14.75;36.99
39435;BME280;30098;51.880;-0.518;2022-12-10T01:51:41;99948.78;;;14.75;37.19
39435;BME280;30098;51.880;-0.518;2022-12-10T01:54:29;99956.91;;;14.75;36.89
39435;BME280;30098;51.880;-0.518;2022-12-10T01:56:59;99949.59;;;14.75;37.11
39435;BME280;30098;51.880;-0.518;2022-12-10T01:59:26;99952.31;;;14.75;37.28
39435;BME280;30098;51.880;-0.518;2022-12-10T02:04:31;99959.31;;;14.76;37.00
39435;BME280;30098;51.880;-0.518;2022-12-10T02:06:59;99954.72;;;14.77;37.10
39435;BME280;30098;51.880;-0.518;2022-12-10T02:09:35;99960.16;;;14.77;36.99
39435;BME280;30098;51.880;-0.518;2022-12-10T02:17:10;99960.16;;;14.77;36.97
39435;BME280;30098;51.880;-0.518;2022-12-10T02:22:22;99976.41;;;14.77;37.24
39435;BME280;30098;51.880;-0.518;2022-12-10T02:24:48;99967.19;;;14.78;37.22
39435;BME280;30098;51.880;-0.518;2022-12-10T02:27:19;99973.69;;;14.77;36.87
39435;BME280;30098;51.880;-0.518;2022-12-10T02:29:47;99959.03;;;14.78;37.25
39435;BME280;30098;51.880;-0.518;2022-12-10T02:32:21;99964.47;;;14.78;37.00
39435;BME280;30098;51.880;-0.518;2022-12-10T02:34:50;99961.75;;;14.78;36.97
39435;BME280;30098;51.880;-0.518;2022-12-10T02:37:24;99966.34;;;14.77;36.99
39435;BME280;30098;51.880;-0.518;2022-12-10T02:39:53;99964.47;;;14.78;37.04
39435;BME280;30098;51.880;-0.518;2022-12-10T02:42:19;99964.47;;;14.78;37.25
39435;BME280;30098;51.880;-0.518;2022-12-10T02:44:46;99959.03;;;14.78;36.93
39435;BME280;30098;51.880;-0.518;2022-12-10T02:47:13;99954.41;;;14.79;36.90
39435;BME280;30098;51.880;-0.518;2022-12-10T02:49:41;99948.19;;;14.78;37.28
39435;BME280;30098;51.880;-0.518;2022-12-10T02:52:07;99950.09;;;14.77;37.26
39435;BME280;30098;51.880;-0.518;2022-12-10T02:54:37;99950.91;;;14.78;37.14
39435;BME280;30098;51.880;-0.518;2022-12-10T02:57:07;99942.78;;;14.78;37.08
39435;BME280;30098;51.880;-0.518;2022-12-10T02:59:48;99950.09;;;14.77;37.09
39435;BME280;30098;51.880;-0.518;2022-12-10T03:02:18;99948.47;;;14.76;37.12
39435;BME280;30098;51.880;-0.518;2022-12-10T03:07:17;99940.34;;;14.76;36.91
39435;BME280;30098;51.880;-0.518;2022-12-10T03:09:46;99937.63;;;14.76;37.13
39435;BME280;30098;51.880;-0.518;2022-12-10T03:12:17;99928.69;;;14.76;37.09
39435;BME280;30098;51.880;-0.518;2022-12-10T03:14:44;99936.84;;;14.76;36.98
39435;BME280;30098;51.880;-0.518;2022-12-10T03:17:09;99936.03;;;14.75;37.00
39435;BME280;30098;51.880;-0.518;2022-12-10T03:19:45;99935.22;;;14.75;36.72
39435;BME280;30098;51.880;-0.518;2022-12-10T03:22:13;99927.09;;;14.75;36.94
39435;BME280;30098;51.880;-0.518;2022-12-10T03:24:41;99928.16;;;14.74;37.14
39435;BME280;30098;51.880;-0.518;2022-12-10T03:27:07;99925.47;;;14.74;36.85
39435;BME280;30098;51.880;-0.518;2022-12-10T03:29:35;99930.09;;;14.73;37.15
39435;BME280;30098;51.880;-0.518;2022-12-10T03:32:02;99927.38;;;14.73;36.92
39435;BME280;30098;51.880;-0.518;2022-12-10T03:34:28;99921.97;;;14.73;37.11
39435;BME280;30098;51.880;-0.518;2022-12-10T03:36:54;99933.59;;;14.74;36.93
39435;BME280;30098;51.880;-0.518;2022-12-10T03:39:19;99924.97;;;14.72;37.23
39435;BME280;30098;51.880;-0.518;2022-12-10T03:41:44;99857.88;;;14.20;37.02
39435;BME280;30098;51.880;-0.518;2022-12-10T03:44:10;99924.97;;;14.72;36.83
39435;BME280;30098;51.880;-0.518;2022-12-10T03:46:35;99920.63;;;14.71;37.28
39435;BME280;30098;51.880;-0.518;2022-12-10T03:49:01;99922.53;;;14.70;36.98
39435;BME280;30098;51.880;-0.518;2022-12-10T03:51:26;99925.25;;;14.70;36.94
39435;BME280;30098;51.880;-0.518;2022-12-10T03:53:52;99929.88;;;14.70;36.79
39435;BME280;30098;51.880;-0.518;2022-12-10T03:56:18;99929.03;;;14.69;36.93
39435;BME280;30098;51.880;-0.518;2022-12-10T03:58:44;99925.53;;;14.69;36.98
39435;BME280;30098;51.880;-0.518;2022-12-10T04:01:09;99926.34;;;14.69;36.79
39435;BME280;30098;51.880;-0.518;2022-12-10T04:03:35;99923.63;;;14.69;36.90
39435;BME280;30098;51.880;-0.518;2022-12-10T04:06:05;99934.78;;;14.68;36.70
39435;BME280;30098;51.880;-0.518;2022-12-10T04:08:31;99932.88;;;14.68;37.04
39435;BME280;30098;51.880;-0.518;2022-12-10T04:11:06;99933.97;;;14.67;36.66
39435;BME280;30098;51.880;-0.518;2022-12-10T04:13:33;99934.78;;;14.68;37.05
39435;BME280;30098;51.880;-0.518;2022-12-10T04:16:17;99926.94;;;14.66;36.95
39435;BME280;30098;51.880;-0.518;2022-12-10T04:18:55;99924.22;;;14.66;36.88
39435;BME280;30098;51.880;-0.518;2022-12-10T04:21:22;99928.00;;;14.65;36.71
39435;BME280;30098;51.880;-0.518;2022-12-10T04:24:07;99930.72;;;14.65;36.65
39435;BME280;30098;51.880;-0.518;2022-12-10T04:26:51;99926.38;;;14.64;36.69
39435;BME280;30098;51.880;-0.518;2022-12-10T04:29:22;99931.03;;;14.64;36.64
39435;BME280;30098;51.880;-0.518;2022-12-10T04:31:48;99939.16;;;14.64;37.08
39435;BME280;30098;51.880;-0.518;2022-12-10T04:34:14;99937.53;;;14.63;36.71
39435;BME280;30098;51.880;-0.518;2022-12-10T04:36:39;99934.81;;;14.63;36.53
39435;BME280;30098;51.880;-0.518;2022-12-10T04:39:04;99935.13;;;14.61;36.72
39435;BME280;30098;51.880;-0.518;2022-12-10T04:41:30;99934.31;;;14.60;36.79
39435;BME280;30098;51.880;-0.518;2022-12-10T04:43:55;99954.38;;;14.59;36.77
39435;BME280;30098;51.880;-0.518;2022-12-10T04:46:21;99945.44;;;14.59;36.62
39435;BME280;30098;51.880;-0.518;2022-12-10T04:48:46;99945.44;;;14.59;36.84
39435;BME280;30098;51.880;-0.518;2022-12-10T04:51:11;99947.34;;;14.58;36.62
39435;BME280;30098;51.880;-0.518;2022-12-10T04:53:36;99949.56;;;14.56;36.62
39435;BME280;30098;51.880;-0.518;2022-12-10T04:56:02;99951.16;;;14.57;36.54
39435;BME280;30098;51.880;-0.518;2022-12-10T04:58:30;99942.22;;;14.57;37.06
39435;BME280;30098;51.880;-0.518;2022-12-10T05:01:03;99938.72;;;14.56;36.94
39435;BME280;30098;51.880;-0.518;2022-12-10T05:03:28;99942.50;;;14.55;36.97
39435;BME280;30098;51.880;-0.518;2022-12-10T05:05:54;99937.88;;;14.56;36.98
39435;BME280;30098;51.880;-0.518;2022-12-10T05:08:19;99938.97;;;14.55;36.75
39435;BME280;30098;51.880;-0.518;2022-12-10T05:10:44;99940.91;;;14.54;36.58
39435;BME280;30098;51.880;-0.518;2022-12-10T05:13:10;99945.78;;;14.52;36.62
39435;BME280;30098;51.880;-0.518;2022-12-10T05:15:37;99942.28;;;14.52;36.85
39435;BME280;30098;51.880;-0.518;2022-12-10T05:18:03;99941.47;;;14.51;36.98
39435;BME280;30098;51.880;-0.518;2022-12-10T05:20:28;99940.66;;;14.51;36.70
39435;BME280;30098;51.880;-0.518;2022-12-10T05:22:53;99943.38;;;14.51;36.71
39435;BME280;30098;51.880;-0.518;2022-12-10T05:25:38;99933.63;;;14.50;36.94
39435;BME280;30098;51.880;-0.518;2022-12-10T05:28:20;99937.13;;;14.50;36.75
39435;BME280;30098;51.880;-0.518;2022-12-10T05:30:46;99935.56;;;14.49;36.96
39435;BME280;30098;51.880;-0.518;2022-12-10T05:33:12;99936.34;;;14.50;36.58
39435;BME280;30098;51.880;-0.518;2022-12-10T05:35:37;99943.69;;;14.49;36.84
39435;BME280;30098;51.880;-0.518;2022-12-10T05:38:02;99919.56;;;14.48;36.88
39435;BME280;30098;51.880;-0.518;2022-12-10T05:40:28;99929.59;;;14.47;36.59
39435;BME280;30098;51.880;-0.518;2022-12-10T05:42:53;99937.72;;;14.47;37.01
39435;BME280;30098;51.880;-0.518;2022-12-10T05:45:19;99935.31;;;14.45;36.87
39435;BME280;30098;51.880;-0.518;2022-12-10T05:47:44;99936.91;;;14.46;36.45
39435;BME280;30098;51.880;-0.518;2022-12-10T05:50:09;99933.41;;;14.46;36.91
39435;BME280;30098;51.880;-0.518;2022-12-10T05:52:35;99934.50;;;14.45;36.85
39435;BME280;30098;51.880;-0.518;2022-12-10T05:55:00;99934.50;;;14.45;36.53
39435;BME280;30098;51.880;-0.518;2022-12-10T05:57:25;99933.72;;;14.44;36.67
39435;BME280;30098;51.880;-0.518;2022-12-10T05:59:51;99930.19;;;14.44;36.84
39435;BME280;30098;51.880;-0.518;2022-12-10T06:02:16;99936.41;;;14.44;36.96
39435;BME280;30098;51.880;-0.518;2022-12-10T06:04:42;99855.47;;;13.94;36.73
39435;BME280;30098;51.880;-0.518;2022-12-10T06:07:07;99934.81;;;14.43;36.76
39435;BME280;30098;51.880;-0.518;2022-12-10T06:09:33;99928.56;;;14.43;36.39
39435;BME280;30098;51.880;-0.518;2022-12-10T06:11:58;99933.19;;;14.42;36.32
39435;BME280;30098;51.880;-0.518;2022-12-10T06:14:23;99935.09;;;14.42;36.66
39435;BME280;30098;51.880;-0.518;2022-12-10T06:16:48;99932.38;;;14.42;36.94
39435;BME280;30098;51.880;-0.518;2022-12-10T06:19:14;99937.00;;;14.41;36.56
39435;BME280;30098;51.880;-0.518;2022-12-10T06:21:39;99941.63;;;14.41;36.40
39435;BME280;30098;51.880;-0.518;2022-12-10T06:24:05;99943.22;;;14.42;36.84
39435;BME280;30098;51.880;-0.518;2022-12-10T06:26:30;99948.66;;;14.42;36.79
39435;BME280;30098;51.880;-0.518;2022-12-10T06:28:55;99948.66;;;14.42;36.71
39435;BME280;30098;51.880;-0.518;2022-12-10T06:31:21;99950.53;;;14.41;36.87
39435;BME280;30098;51.880;-0.518;2022-12-10T06:33:47;99947.03;;;14.41;36.68
39435;BME280;30098;51.880;-0.518;2022-12-10T06:36:13;99945.13;;;14.41;36.69
39435;BME280;30098;51.880;-0.518;2022-12-10T06:38:39;99942.41;;;14.41;36.94
39435;BME280;30098;51.880;-0.518;2022-12-10T06:41:06;99949.44;;;14.42;36.66
39435;BME280;30098;51.880;-0.518;2022-12-10T06:43:31;99938.91;;;14.41;37.04
39435;BME280;30098;51.880;-0.518;2022-12-10T06:45:57;99952.47;;;14.41;36.96
39435;BME280;30098;51.880;-0.518;2022-12-10T06:48:22;99945.94;;;14.42;36.98
39435;BME280;30098;51.880;-0.518;2022-12-10T06:50:48;99949.44;;;14.42;36.68
39435;BME280;30098;51.880;-0.518;2022-12-10T06:53:13;99952.94;;;14.43;36.98
39435;BME280;30098;51.880;-0.518;2022-12-10T06:55:38;99958.38;;;14.43;36.74
39435;BME280;30098;51.880;-0.518;2022-12-10T06:58:04;99947.53;;;14.43;36.80
39435;BME280;30098;51.880;-0.518;2022-12-10T07:00:29;99953.78;;;14.43;36.69
39435;BME280;30098;51.880;-0.518;2022-12-10T07:02:55;99952.94;;;14.43;37.16
39435;BME280;30098;51.880;-0.518;2022-12-10T07:05:20;99956.50;;;14.43;37.18
39435;BME280;30098;51.880;-0.518;2022-12-10T07:07:46;99951.84;;;14.44;36.69
39435;BME280;30098;51.880;-0.518;2022-12-10T07:10:11;99949.16;;;14.44;36.95
39435;BME280;30098;51.880;-0.518;2022-12-10T07:12:36;99945.34;;;14.45;36.71
39435;BME280;30098;51.880;-0.518;2022-12-10T07:15:02;99945.34;;;14.45;36.93
39435;BME280;30098;51.880;-0.518;2022-12-10T07:17:28;99941.84;;;14.44;36.46
39435;BME280;30098;51.880;-0.518;2022-12-10T07:19:53;99943.72;;;14.44;36.97
39435;BME280;30098;51.880;-0.518;2022-12-10T07:22:18;99942.63;;;14.45;36.92
39435;BME280;30098;51.880;-0.518;2022-12-10T07:24:44;99954.31;;;14.45;36.50
39435;BME280;30098;51.880;-0.518;2022-12-10T07:27:09;99957.00;;;14.45;36.87
39435;BME280;30098;51.880;-0.518;2022-12-10T07:29:34;99955.09;;;14.46;36.64
39435;BME280;30098;51.880;-0.518;2022-12-10T07:32:00;99957.81;;;14.46;36.60
39435;BME280;30098;51.880;-0.518;2022-12-10T07:34:25;99958.91;;;14.45;36.89
39435;BME280;30098;51.880;-0.518;2022-12-10T07:36:51;99955.09;;;14.46;36.92
39435;BME280;30098;51.880;-0.518;2022-12-10T07:39:16;99957.81;;;14.46;36.98
39435;BME280;30098;51.880;-0.518;2022-12-10T07:41:48;99955.09;;;14.46;36.73
39435;BME280;30098;51.880;-0.518;2022-12-10T07:44:15;99954.00;;;14.47;36.49
39435;BME280;30098;51.880;-0.518;2022-12-10T07:46:41;99957.50;;;14.48;36.71
39435;BME280;30098;51.880;-0.518;2022-12-10T07:49:07;99956.72;;;14.47;36.97
39435;BME280;30098;51.880;-0.518;2022-12-10T07:51:33;99967.56;;;14.47;36.89
39435;BME280;30098;51.880;-0.518;2022-12-10T07:53:58;99962.13;;;14.47;36.89
39435;BME280;30098;51.880;-0.518;2022-12-10T07:56:24;99881.47;;;13.95;36.74
39435;BME280;30098;51.880;-0.518;2022-12-10T07:58:50;99962.94;;;14.48;36.89
39435;BME280;30098;51.880;-0.518;2022-12-10T08:01:18;99967.25;;;14.49;36.83
39435;BME280;30098;51.880;-0.518;2022-12-10T08:03:44;99961.03;;;14.48;36.86
39435;BME280;30098;51.880;-0.518;2022-12-10T08:06:11;99965.38;;;14.49;36.77
39435;BME280;30098;51.880;-0.518;2022-12-10T08:08:37;99974.28;;;14.50;36.57
39435;BME280;30098;51.880;-0.518;2022-12-10T08:11:03;99968.88;;;14.50;37.12
39435;BME280;30098;51.880;-0.518;2022-12-10T08:13:29;99965.38;;;14.49;36.65
39435;BME280;30098;51.880;-0.518;2022-12-10T08:16:00;99912.19;;;14.10;36.40
39435;BME280;30098;51.880;-0.518;2022-12-10T08:18:25;99975.09;;;14.50;36.48
39435;BME280;30098;51.880;-0.518;2022-12-10T08:20:51;99890.91;;;13.98;36.97
39435;BME280;30098;51.880;-0.518;2022-12-10T08:23:16;99975.09;;;14.50;36.53
39435;BME280;30098;51.880;-0.518;2022-12-10T08:25:41;99981.34;;;14.51;36.73
39435;BME280;30098;51.880;-0.518;2022-12-10T08:28:07;99982.13;;;14.51;36.84
39435;BME280;30098;51.880;-0.518;2022-12-10T08:30:34;99980.25;;;14.52;36.87
39435;BME280;30098;51.880;-0.518;2022-12-10T08:32:59;99973.72;;;14.53;36.51
39435;BME280;30098;51.880;-0.518;2022-12-10T08:35:24;99982.13;;;14.51;36.88
39435;BME280;30098;51.880;-0.518;2022-12-10T08:37:50;99984.84;;;14.51;36.40
39435;BME280;30098;51.880;-0.518;2022-12-10T08:40:16;99979.72;;;14.50;36.53
39435;BME280;30098;51.880;-0.518;2022-12-10T08:42:41;99894.94;;;14.01;36.65
39435;BME280;30098;51.880;-0.518;2022-12-10T08:45:07;99974.81;;;14.52;36.38
39435;BME280;30098;51.880;-0.518;2022-12-10T08:47:32;99978.31;;;14.52;36.83
39435;BME280;30098;51.880;-0.518;2022-12-10T08:49:57;99981.03;;;14.52;36.48
39435;BME280;30098;51.880;-0.518;2022-12-10T08:52:23;99975.63;;;14.52;36.31
39435;BME280;30098;51.880;-0.518;2022-12-10T08:54:48;99902.28;;;14.00;36.79
39435;BME280;30098;51.880;-0.518;2022-12-10T08:57:13;99982.94;;;14.52;36.61
39435;BME280;30098;51.880;-0.518;2022-12-10T08:59:39;99985.66;;;14.52;36.86
39435;BME280;30098;51.880;-0.518;2022-12-10T09:02:04;99982.13;;;14.51;36.54
39435;BME280;30098;51.880;-0.518;2022-12-10T09:04:29;99984.84;;;14.51;36.68
39435;BME280;30098;51.880;-0.518;2022-12-10T09:06:55;99990.25;;;14.51;36.79
39435;BME280;30098;51.880;-0.518;2022-12-10T09:09:20;99990.25;;;14.51;36.50
39435;BME280;30098;51.880;-0.518;2022-12-10T09:11:46;99992.19;;;14.51;36.68
39435;BME280;30098;51.880;-0.518;2022-12-10T09:14:11;100000.31;;;14.51;36.33
39435;BME280;30098;51.880;-0.518;2022-12-10T09:16:37;100000.31;;;14.51;36.63
39435;BME280;30098;51.880;-0.518;2022-12-10T09:19:04;99998.69;;;14.50;36.83
39435;BME280;30098;51.880;-0.518;2022-12-10T09:21:30;100001.41;;;14.50;36.78
39435;BME280;30098;51.880;-0.518;2022-12-10T09:23:56;100008.72;;;14.49;36.58
39435;BME280;30098;51.880;-0.518;2022-12-10T09:26:21;100000.59;;;14.49;36.55
39435;BME280;30098;51.880;-0.518;2022-12-10T09:28:47;100007.13;;;14.48;36.60
39435;BME280;30098;51.880;-0.518;2022-12-10T09:31:13;100009.00;;;14.48;36.56
39435;BME280;30098;51.880;-0.518;2022-12-10T09:33:39;100004.41;;;14.48;36.90
39435;BME280;30098;51.880;-0.518;2022-12-10T09:36:05;100009.81;;;14.48;36.40
39435;BME280;30098;51.880;-0.518;2022-12-10T09:38:35;100008.22;;;14.47;36.63
39435;BME280;30098;51.880;-0.518;2022-12-10T09:48:34;100016.63;;;14.45;36.54
39435;BME280;30098;51.880;-0.518;2022-12-10T09:53:34;100007.69;;;14.45;36.59
39435;BME280;30098;51.880;-0.518;2022-12-10T09:56:01;100014.72;;;14.46;36.66
39435;BME280;30098;51.880;-0.518;2022-12-10T09:58:27;100016.91;;;14.44;36.58
39435;BME280;30098;51.880;-0.518;2022-12-10T10:01:00;100006.88;;;14.44;37.04
39435;BME280;30098;51.880;-0.518;2022-12-10T10:03:27;99999.84;;;14.43;36.98
39435;BME280;30098;51.880;-0.518;2022-12-10T10:05:55;100004.44;;;14.43;36.92
39435;BME280;30098;51.880;-0.518;2022-12-10T10:08:23;100002.88;;;14.42;36.93
39435;BME280;30098;51.880;-0.518;2022-12-10T10:10:51;99992.81;;;14.42;37.11
39435;BME280;30098;51.880;-0.518;2022-12-10T10:18:39;100003.66;;;14.42;36.54
39435;BME280;30098;51.880;-0.518;2022-12-10T10:21:07;100007.75;;;14.40;36.90
39435;BME280;30098;51.880;-0.518;2022-12-10T10:23:36;100002.34;;;14.40;36.71
39435;BME280;30098;51.880;-0.518;2022-12-10T10:26:02;99998.00;;;14.39;36.78
39435;BME280;30098;51.880;-0.518;2022-12-10T10:28:27;99999.91;;;14.38;36.94
39435;BME280;30098;51.880;-0.518;2022-12-10T10:30:53;100007.22;;;14.38;36.72
39435;BME280;30098;51.880;-0.518;2022-12-10T10:33:19;99931.94;;;13.86;36.67
39435;BME280;30098;51.880;-0.518;2022-12-10T10:35:48;100008.84;;;14.39;36.92
39435;BME280;30098;51.880;-0.518;2022-12-10T10:40:44;100015.34;;;14.38;36.79
39435;BME280;30098;51.880;-0.518;2022-12-10T10:43:27;100016.44;;;14.37;37.21
39435;BME280;30098;51.880;-0.518;2022-12-10T10:48:37;100004.00;;;14.36;36.72
39435;BME280;30098;51.880;-0.518;2022-12-10T10:51:15;100009.41;;;14.36;36.79
39435;BME280;30098;51.880;-0.518;2022-12-10T10:53:45;100014.03;;;14.35;36.69
39435;BME280;30098;51.880;-0.518;2022-12-10T10:56:43;100007.81;;;14.35;36.81
39435;BME280;30098;51.880;-0.518;2022-12-10T11:01:50;100005.38;;;14.33;36.96
39435;BME280;30098;51.880;-0.518;2022-12-10T11:04:16;100002.41;;;14.35;36.99
39435;BME280;30098;51.880;-0.518;2022-12-10T11:06:42;100005.38;;;14.33;36.72
39435;BME280;30098;51.880;-0.518;2022-12-10T11:09:13;99999.16;;;14.33;36.92
39435;BME280;30098;51.880;-0.518;2022-12-10T11:11:42;100001.88;;;14.33;36.64
39435;BME280;30098;51.880;-0.518;2022-12-10T11:14:19;99999.16;;;14.33;36.95
39435;BME280;30098;51.880;-0.518;2022-12-10T11:16:48;100002.16;;;14.31;36.65
39435;BME280;30098;51.880;-0.518;2022-12-10T11:19:21;99925.50;;;13.82;36.64
39435;BME280;30098;51.880;-0.518;2022-12-10T11:21:46;99993.22;;;14.30;36.63
39435;BME280;30098;51.880;-0.518;2022-12-10T11:24:12;99997.53;;;14.32;36.58
39435;BME280;30098;51.880;-0.518;2022-12-10T11:26:43;99999.47;;;14.31;36.83
39435;BME280;30098;51.880;-0.518;2022-12-10T11:31:51;99996.22;;;14.29;36.83
39435;BME280;30098;51.880;-0.518;2022-12-10T11:37:01;99993.50;;;14.29;37.08
39435;BME280;30098;51.880;-0.518;2022-12-10T12:05:07;99977.03;;;14.25;36.92
39435;BME280;30098;51.880;-0.518;2022-12-10T12:20:57;99977.59;;;14.22;36.82
39435;BME280;30098;51.880;-0.518;2022-12-10T12:25:49;99968.66;;;14.22;37.31
39435;BME280;30098;51.880;-0.518;2022-12-10T12:30:57;99970.56;;;14.21;36.90
39435;BME280;30098;51.880;-0.518;2022-12-10T12:34:10;99968.97;;;14.20;36.79
39435;BME280;30098;51.880;-0.518;2022-12-10T12:36:12;99972.78;;;14.19;37.31
39435;BME280;30098;51.880;-0.518;2022-12-10T12:41:05;99984.41;;;14.20;37.23
39435;BME280;30098;51.880;-0.518;2022-12-10T12:46:00;99982.00;;;14.18;37.17
39435;BME280;30098;51.880;-0.518;2022-12-10T12:51:05;99985.00;;;14.17;37.00
39435;BME280;30098;51.880;-0.518;2022-12-10T12:53:32;99978.44;;;14.18;37.13
39435;BME280;30098;51.880;-0.518;2022-12-10T12:56:02;99985.00;;;14.17;36.59
39435;BME280;30098;51.880;-0.518;2022-12-10T12:59:32;99970.63;;;14.16;36.95
39435;BME280;30098;51.880;-0.518;2022-12-10T13:03:58;99976.03;;;14.16;37.00
39435;BME280;30098;51.880;-0.518;2022-12-10T13:06:28;99974.41;;;14.15;36.73
39435;BME280;30098;51.880;-0.518;2022-12-10T13:11:38;99974.41;;;14.15;36.96
39435;BME280;30098;51.880;-0.518;2022-12-10T13:24:25;99964.19;;;14.12;37.30
39435;BME280;30098;51.880;-0.518;2022-12-10T13:27:26;99957.66;;;14.13;37.38
39435;BME280;30098;51.880;-0.518;2022-12-10T13:37:32;99959.84;;;14.11;37.22
39435;BME280;30098;51.880;-0.518;2022-12-10T13:42:36;99956.31;;;14.10;36.78
39435;BME280;30098;51.880;-0.518;2022-12-10T13:47:47;99955.53;;;14.10;37.24
39435;BME280;30098;51.880;-0.518;2022-12-10T13:53:08;99955.53;;;14.10;36.79
39435;BME280;30098;51.880;-0.518;2022-12-10T13:55:49;99944.69;;;14.10;37.21
39435;BME280;30098;51.880;-0.518;2022-12-10T14:03:35;99949.59;;;14.08;37.15
39435;BME280;30098;51.880;-0.518;2022-12-10T14:08:33;99947.97;;;14.07;37.58
39435;BME280;30098;51.880;-0.518;2022-12-10T14:10:59;99955.00;;;14.08;37.30
39435;BME280;30098;51.880;-0.518;2022-12-10T14:13:41;99947.97;;;14.07;37.33
39435;BME280;30098;51.880;-0.518;2022-12-10T14:16:12;99949.88;;;14.06;37.66
39435;BME280;30098;51.880;-0.518;2022-12-10T14:18:38;99950.66;;;14.07;37.32
39435;BME280;30098;51.880;-0.518;2022-12-10T14:21:06;99958.00;;;14.06;37.55
39435;BME280;30098;51.880;-0.518;2022-12-10T14:23:32;99951.78;;;14.06;37.12
39435;BME280;30098;51.880;-0.518;2022-12-10T14:26:06;99948.25;;;14.05;37.29
39435;BME280;30098;51.880;-0.518;2022-12-10T14:28:32;99951.78;;;14.06;37.26
39435;BME280;30098;51.880;-0.518;2022-12-10T14:30:58;99952.59;;;14.06;37.35
39435;BME280;30098;51.880;-0.518;2022-12-10T14:33:23;99950.97;;;14.05;37.67
39435;BME280;30098;51.880;-0.518;2022-12-10T14:35:50;99954.78;;;14.04;37.33
39435;BME280;30098;51.880;-0.518;2022-12-10T14:38:20;99961.81;;;14.05;37.50
39435;BME280;30098;51.880;-0.518;2022-12-10T14:40:46;99959.38;;;14.04;37.30
39435;BME280;30098;51.880;-0.518;2022-12-10T14:43:19;99973.72;;;14.04;36.94
39435;BME280;30098;51.880;-0.518;2022-12-10T14:45:49;99964.81;;;14.04;37.43
39435;BME280;30098;51.880;-0.518;2022-12-10T14:48:16;99961.28;;;14.03;37.19
39435;BME280;30098;51.880;-0.518;2022-12-10T14:50:42;99955.84;;;14.03;37.49
39435;BME280;30098;51.880;-0.518;2022-12-10T14:53:13;99958.56;;;14.03;37.54
39435;BME280;30098;51.880;-0.518;2022-12-10T14:55:38;99957.78;;;14.03;37.18
39435;BME280;30098;51.880;-0.518;2022-12-10T14:58:04;99963.19;;;14.03;37.17
39435;BME280;30098;51.880;-0.518;2022-12-10T15:00:31;99964.81;;;14.04;37.81
39435;BME280;30098;51.880;-0.518;2022-12-10T15:02:59;99967.00;;;14.02;37.42
39435;BME280;30098;51.880;-0.518;2022-12-10T15:05:27;99977.81;;;14.02;37.33